Terminal Aerodrome Forecast
Issued by NWS Jackson, MS

Home | Current Version | Previous Version | Text Only | Print | Product List | Glossary On
Versions: 1 2 3 4 5 6 7 8 9 10 11 12 13 14 15 16 17
000
FTUS44 KMEG 012202 AAB
TAFTUP
TAF AMD
KTUP 012202Z 0122/0218 06010KT P6SM VCTS OVC035CB
      TEMPO 0122/0201 6SM TSRA OVC025CB
     FM020100 22006KT P6SM SCT040 BKN150
     FM021100 22006KT P6SM VCSH SCT010 BKN100
      TEMPO 0213/0217 5SM SHRA BKN025=

USA.gov is the U.S. government's official web portal to all federal, state and local government web resources and services.